sensor_id;sensor_type;location;lat;lon;timestamp;temperature;humidity
20856;DHT22;63058;49.424;8.420;2023-11-19T00:00:20;11.80;99.90
20856;DHT22;63058;49.424;8.420;2023-11-19T00:02:45;11.80;99.90
20856;DHT22;63058;49.424;8.420;2023-11-19T00:05:13;11.80;99.90
20856;DHT22;63058;49.424;8.420;2023-11-19T00:07:39;11.80;99.90
20856;DHT22;63058;49.424;8.420;2023-11-19T00:10:16;11.80;99.90
20856;DHT22;63058;49.424;8.420;2023-11-19T00:12:46;11.80;99.90
20856;DHT22;63058;49.424;8.420;2023-11-19T00:15:16;11.80;99.90
20856;DHT22;63058;49.424;8.420;2023-11-19T00:17:45;11.80;99.90
20856;DHT22;63058;49.424;8.420;2023-11-19T00:20:15;11.80;99.90
20856;DHT22;63058;49.424;8.420;2023-11-19T00:22:41;11.80;99.90
20856;DHT22;63058;49.424;8.420;2023-11-19T00:25:09;11.70;99.90
20856;DHT22;63058;49.424;8.420;2023-11-19T00:27:35;11.70;99.90
20856;DHT22;63058;49.424;8.420;2023-11-19T00:30:03;11.70;99.90
20856;DHT22;63058;49.424;8.420;2023-11-19T00:32:31;11.70;99.90
20856;DHT22;63058;49.424;8.420;2023-11-19T00:34:56;11.60;99.90
20856;DHT22;63058;49.424;8.420;2023-11-19T00:37:22;11.60;99.90
20856;DHT22;63058;49.424;8.420;2023-11-19T00:39:47;11.70;99.90
20856;DHT22;63058;49.424;8.420;2023-11-19T00:42:13;11.60;99.90
20856;DHT22;63058;49.424;8.420;2023-11-19T00:44:39;11.70;99.90
20856;DHT22;63058;49.424;8.420;2023-11-19T00:47:05;11.50;99.90
20856;DHT22;63058;49.424;8.420;2023-11-19T00:49:30;11.60;99.90
20856;DHT22;63058;49.424;8.420;2023-11-19T00:51:58;11.60;99.90
20856;DHT22;63058;49.424;8.420;2023-11-19T00:54:24;11.70;99.90
20856;DHT22;63058;49.424;8.420;2023-11-19T00:56:54;11.60;99.90
20856;DHT22;63058;49.424;8.420;2023-11-19T00:59:19;11.60;99.90
20856;DHT22;63058;49.424;8.420;2023-11-19T01:01:45;11.60;99.90
20856;DHT22;63058;49.424;8.420;2023-11-19T01:04:11;11.60;99.90
20856;DHT22;63058;49.424;8.420;2023-11-19T01:06:36;11.60;99.90
20856;DHT22;63058;49.424;8.420;2023-11-19T01:09:02;11.60;99.90
20856;DHT22;63058;49.424;8.420;2023-11-19T01:11:27;11.70;99.90
20856;DHT22;63058;49.424;8.420;2023-11-19T01:13:53;11.70;99.90
20856;DHT22;63058;49.424;8.420;2023-11-19T01:16:19;11.60;99.90
20856;DHT22;63058;49.424;8.420;2023-11-19T01:18:49;11.70;99.90
20856;DHT22;63058;49.424;8.420;2023-11-19T01:21:15;11.70;99.90
20856;DHT22;63058;49.424;8.420;2023-11-19T01:23:41;11.70;99.90
20856;DHT22;63058;49.424;8.420;2023-11-19T01:26:11;11.80;99.90
20856;DHT22;63058;49.424;8.420;2023-11-19T01:28:37;11.70;99.90
20856;DHT22;63058;49.424;8.420;2023-11-19T01:31:05;11.70;99.90
20856;DHT22;63058;49.424;8.420;2023-11-19T01:33:30;11.70;99.90
20856;DHT22;63058;49.424;8.420;2023-11-19T01:35:56;11.70;99.90
20856;DHT22;63058;49.424;8.420;2023-11-19T01:38:24;11.80;99.90
20856;DHT22;63058;49.424;8.420;2023-11-19T01:40:50;11.70;99.90
20856;DHT22;63058;49.424;8.420;2023-11-19T01:43:45;11.70;99.90
20856;DHT22;63058;49.424;8.420;2023-11-19T01:46:13;11.70;99.90
20856;DHT22;63058;49.424;8.420;2023-11-19T01:48:45;11.80;99.90
20856;DHT22;63058;49.424;8.420;2023-11-19T01:51:12;11.70;99.90
20856;DHT22;63058;49.424;8.420;2023-11-19T01:53:39;11.70;99.90
20856;DHT22;63058;49.424;8.420;2023-11-19T01:56:07;11.80;99.90
20856;DHT22;63058;49.424;8.420;2023-11-19T01:58:35;11.80;99.90
20856;DHT22;63058;49.424;8.420;2023-11-19T02:01:01;11.80;99.90
20856;DHT22;63058;49.424;8.420;2023-11-19T02:03:30;11.80;99.90
20856;DHT22;63058;49.424;8.420;2023-11-19T02:05:56;11.80;99.90
20856;DHT22;63058;49.424;8.420;2023-11-19T02:08:23;11.80;99.90
20856;DHT22;63058;49.424;8.420;2023-11-19T02:10:48;11.80;99.90
20856;DHT22;63058;49.424;8.420;2023-11-19T02:13:14;11.80;99.90
20856;DHT22;63058;49.424;8.420;2023-11-19T02:15:41;11.80;99.90
20856;DHT22;63058;49.424;8.420;2023-11-19T02:18:21;11.80;99.90
20856;DHT22;63058;49.424;8.420;2023-11-19T02:20:50;11.80;99.90
20856;DHT22;63058;49.424;8.420;2023-11-19T02:23:17;11.80;99.90
20856;DHT22;63058;49.424;8.420;2023-11-19T02:25:47;11.80;99.90
20856;DHT22;63058;49.424;8.420;2023-11-19T02:28:15;11.80;99.90
20856;DHT22;63058;49.424;8.420;2023-11-19T02:30:41;11.80;99.90
20856;DHT22;63058;49.424;8.420;2023-11-19T02:33:07;11.80;99.90
20856;DHT22;63058;49.424;8.420;2023-11-19T02:35:34;11.90;99.90
20856;DHT22;63058;49.424;8.420;2023-11-19T02:37:59;11.90;99.90
20856;DHT22;63058;49.424;8.420;2023-11-19T02:40:26;11.90;99.90
20856;DHT22;63058;49.424;8.420;2023-11-19T02:42:55;11.90;99.90
20856;DHT22;63058;49.424;8.420;2023-11-19T02:45:22;11.90;99.90
20856;DHT22;63058;49.424;8.420;2023-11-19T02:47:48;12.00;99.90
20856;DHT22;63058;49.424;8.420;2023-11-19T02:50:13;12.00;99.90
20856;DHT22;63058;49.424;8.420;2023-11-19T02:52:44;12.00;99.90
20856;DHT22;63058;49.424;8.420;2023-11-19T02:55:11;12.00;99.90
20856;DHT22;63058;49.424;8.420;2023-11-19T02:57:40;12.00;99.90
20856;DHT22;63058;49.424;8.420;2023-11-19T03:00:15;12.10;99.90
20856;DHT22;63058;49.424;8.420;2023-11-19T03:02:41;12.10;99.90
20856;DHT22;63058;49.424;8.420;2023-11-19T03:05:15;12.10;99.90
20856;DHT22;63058;49.424;8.420;2023-11-19T03:07:42;12.10;99.90
20856;DHT22;63058;49.424;8.420;2023-11-19T03:10:11;12.10;99.90
20856;DHT22;63058;49.424;8.420;2023-11-19T03:12:40;12.10;99.90
20856;DHT22;63058;49.424;8.420;2023-11-19T03:15:07;12.20;99.90
20856;DHT22;63058;49.424;8.420;2023-11-19T03:17:43;12.20;99.90
20856;DHT22;63058;49.424;8.420;2023-11-19T03:20:11;12.20;99.90
20856;DHT22;63058;49.424;8.420;2023-11-19T03:22:41;12.20;99.90
20856;DHT22;63058;49.424;8.420;2023-11-19T03:25:10;12.20;99.90
20856;DHT22;63058;49.424;8.420;2023-11-19T03:27:38;12.20;99.90
20856;DHT22;63058;49.424;8.420;2023-11-19T03:30:10;12.20;99.90
20856;DHT22;63058;49.424;8.420;2023-11-19T03:32:36;12.30;99.90
20856;DHT22;63058;49.424;8.420;2023-11-19T03:35:02;12.30;99.90
20856;DHT22;63058;49.424;8.420;2023-11-19T03:37:29;12.30;99.90
20856;DHT22;63058;49.424;8.420;2023-11-19T03:39:56;12.30;99.90
20856;DHT22;63058;49.424;8.420;2023-11-19T03:42:28;12.40;99.90
20856;DHT22;63058;49.424;8.420;2023-11-19T03:44:56;12.30;99.90
20856;DHT22;63058;49.424;8.420;2023-11-19T03:47:22;12.40;99.90
20856;DHT22;63058;49.424;8.420;2023-11-19T03:49:51;12.40;99.90
20856;DHT22;63058;49.424;8.420;2023-11-19T03:52:17;12.40;99.90
20856;DHT22;63058;49.424;8.420;2023-11-19T03:54:43;12.50;99.90
20856;DHT22;63058;49.424;8.420;2023-11-19T03:57:09;12.50;99.90
20856;DHT22;63058;49.424;8.420;2023-11-19T03:59:36;12.50;99.90
20856;DHT22;63058;49.424;8.420;2023-11-19T04:02:02;12.50;99.90
20856;DHT22;63058;49.424;8.420;2023-11-19T04:04:28;12.70;99.90
20856;DHT22;63058;49.424;8.420;2023-11-19T04:06:57;12.60;99.90
20856;DHT22;63058;49.424;8.420;2023-11-19T04:09:23;12.60;99.90
20856;DHT22;63058;49.424;8.420;2023-11-19T04:11:49;12.60;99.90
20856;DHT22;63058;49.424;8.420;2023-11-19T04:14:14;12.60;99.90
20856;DHT22;63058;49.424;8.420;2023-11-19T04:16:43;12.60;99.90
20856;DHT22;63058;49.424;8.420;2023-11-19T04:19:09;12.70;99.90
20856;DHT22;63058;49.424;8.420;2023-11-19T04:21:34;12.70;99.90
20856;DHT22;63058;49.424;8.420;2023-11-19T04:24:00;12.80;99.90
20856;DHT22;63058;49.424;8.420;2023-11-19T04:26:26;12.80;99.90
20856;DHT22;63058;49.424;8.420;2023-11-19T04:28:51;12.80;99.90
20856;DHT22;63058;49.424;8.420;2023-11-19T04:31:17;12.80;99.90
20856;DHT22;63058;49.424;8.420;2023-11-19T04:33:43;12.90;99.90
20856;DHT22;63058;49.424;8.420;2023-11-19T04:36:09;12.80;99.90
20856;DHT22;63058;49.424;8.420;2023-11-19T04:38:35;12.90;99.90
20856;DHT22;63058;49.424;8.420;2023-11-19T04:41:01;12.90;99.90
20856;DHT22;63058;49.424;8.420;2023-11-19T04:43:26;13.00;99.90
20856;DHT22;63058;49.424;8.420;2023-11-19T04:45:52;13.00;99.90
20856;DHT22;63058;49.424;8.420;2023-11-19T04:48:18;13.00;99.90
20856;DHT22;63058;49.424;8.420;2023-11-19T04:50:43;13.00;99.90
20856;DHT22;63058;49.424;8.420;2023-11-19T04:53:09;13.10;99.90
20856;DHT22;63058;49.424;8.420;2023-11-19T04:55:35;13.10;99.90
20856;DHT22;63058;49.424;8.420;2023-11-19T04:58:01;13.10;99.90
20856;DHT22;63058;49.424;8.420;2023-11-19T05:00:26;13.10;99.90
20856;DHT22;63058;49.424;8.420;2023-11-19T05:02:52;13.10;99.90
20856;DHT22;63058;49.424;8.420;2023-11-19T05:05:17;13.20;99.90
20856;DHT22;63058;49.424;8.420;2023-11-19T05:07:43;13.20;99.90
20856;DHT22;63058;49.424;8.420;2023-11-19T05:10:09;13.20;99.90
20856;DHT22;63058;49.424;8.420;2023-11-19T05:12:35;13.20;99.90
20856;DHT22;63058;49.424;8.420;2023-11-19T05:15:00;13.20;99.90
20856;DHT22;63058;49.424;8.420;2023-11-19T05:17:26;13.30;99.90
20856;DHT22;63058;49.424;8.420;2023-11-19T05:19:52;13.40;99.90
20856;DHT22;63058;49.424;8.420;2023-11-19T05:22:18;13.30;99.90
20856;DHT22;63058;49.424;8.420;2023-11-19T05:24:43;13.30;99.90
20856;DHT22;63058;49.424;8.420;2023-11-19T05:27:09;13.40;99.90
20856;DHT22;63058;49.424;8.420;2023-11-19T05:29:36;13.40;99.90
20856;DHT22;63058;49.424;8.420;2023-11-19T05:32:04;13.40;99.90
20856;DHT22;63058;49.424;8.420;2023-11-19T05:34:30;13.40;99.90
20856;DHT22;63058;49.424;8.420;2023-11-19T05:36:56;13.50;99.90
20856;DHT22;63058;49.424;8.420;2023-11-19T05:39:22;13.60;99.90
20856;DHT22;63058;49.424;8.420;2023-11-19T05:41:49;13.60;99.90
20856;DHT22;63058;49.424;8.420;2023-11-19T05:44:14;13.60;99.90
20856;DHT22;63058;49.424;8.420;2023-11-19T05:46:40;13.60;99.90
20856;DHT22;63058;49.424;8.420;2023-11-19T05:49:08;13.70;99.90
20856;DHT22;63058;49.424;8.420;2023-11-19T05:51:38;13.70;99.90
20856;DHT22;63058;49.424;8.420;2023-11-19T05:54:06;13.70;99.90
20856;DHT22;63058;49.424;8.420;2023-11-19T05:56:32;13.70;99.90
20856;DHT22;63058;49.424;8.420;2023-11-19T05:58:59;13.80;99.90
20856;DHT22;63058;49.424;8.420;2023-11-19T06:01:29;13.70;99.90
20856;DHT22;63058;49.424;8.420;2023-11-19T06:03:55;13.70;99.90
20856;DHT22;63058;49.424;8.420;2023-11-19T06:06:20;13.80;99.90
20856;DHT22;63058;49.424;8.420;2023-11-19T06:08:46;13.80;99.90
20856;DHT22;63058;49.424;8.420;2023-11-19T06:11:12;13.80;99.90
20856;DHT22;63058;49.424;8.420;2023-11-19T06:13:44;13.80;99.90
20856;DHT22;63058;49.424;8.420;2023-11-19T06:16:10;13.80;99.90
20856;DHT22;63058;49.424;8.420;2023-11-19T06:18:39;13.90;99.90
20856;DHT22;63058;49.424;8.420;2023-11-19T06:21:04;13.90;99.90
20856;DHT22;63058;49.424;8.420;2023-11-19T06:23:30;13.90;99.90
20856;DHT22;63058;49.424;8.420;2023-11-19T06:25:56;13.90;99.90
20856;DHT22;63058;49.424;8.420;2023-11-19T06:28:21;13.90;99.90
20856;DHT22;63058;49.424;8.420;2023-11-19T06:30:47;14.00;99.90
20856;DHT22;63058;49.424;8.420;2023-11-19T06:33:13;14.00;99.90
20856;DHT22;63058;49.424;8.420;2023-11-19T06:35:39;14.20;99.90
20856;DHT22;63058;49.424;8.420;2023-11-19T06:38:05;14.10;99.90
20856;DHT22;63058;49.424;8.420;2023-11-19T06:40:34;14.00;99.90
20856;DHT22;63058;49.424;8.420;2023-11-19T06:43:03;14.10;99.90
20856;DHT22;63058;49.424;8.420;2023-11-19T06:45:33;14.10;99.90
20856;DHT22;63058;49.424;8.420;2023-11-19T06:48:03;14.10;99.90
20856;DHT22;63058;49.424;8.420;2023-11-19T06:50:30;14.20;99.90
20856;DHT22;63058;49.424;8.420;2023-11-19T06:52:55;14.10;99.90
20856;DHT22;63058;49.424;8.420;2023-11-19T06:55:21;14.10;99.90
20856;DHT22;63058;49.424;8.420;2023-11-19T06:57:46;14.10;99.90
20856;DHT22;63058;49.424;8.420;2023-11-19T07:00:12;14.10;99.90
20856;DHT22;63058;49.424;8.420;2023-11-19T07:02:38;14.20;99.90
20856;DHT22;63058;49.424;8.420;2023-11-19T07:05:05;14.20;99.90
20856;DHT22;63058;49.424;8.420;2023-11-19T07:07:31;14.20;99.90
20856;DHT22;63058;49.424;8.420;2023-11-19T07:09:57;14.20;99.90
20856;DHT22;63058;49.424;8.420;2023-11-19T07:12:23;14.20;99.90
20856;DHT22;63058;49.424;8.420;2023-11-19T07:14:49;14.20;99.90
20856;DHT22;63058;49.424;8.420;2023-11-19T07:17:15;14.30;99.90
20856;DHT22;63058;49.424;8.420;2023-11-19T07:19:40;14.30;99.90
20856;DHT22;63058;49.424;8.420;2023-11-19T07:22:06;14.40;99.90
20856;DHT22;63058;49.424;8.420;2023-11-19T07:24:32;14.50;99.90
20856;DHT22;63058;49.424;8.420;2023-11-19T07:26:58;14.50;99.90
20856;DHT22;63058;49.424;8.420;2023-11-19T07:29:23;14.50;99.90
20856;DHT22;63058;49.424;8.420;2023-11-19T07:31:49;14.60;99.90
20856;DHT22;63058;49.424;8.420;2023-11-19T07:34:15;14.60;99.90
20856;DHT22;63058;49.424;8.420;2023-11-19T07:36:41;14.70;99.90
20856;DHT22;63058;49.424;8.420;2023-11-19T07:39:07;14.80;99.90
20856;DHT22;63058;49.424;8.420;2023-11-19T07:41:33;14.70;99.90
20856;DHT22;63058;49.424;8.420;2023-11-19T07:44:00;14.70;99.90
20856;DHT22;63058;49.424;8.420;2023-11-19T07:46:26;14.80;99.90
20856;DHT22;63058;49.424;8.420;2023-11-19T07:48:52;14.80;99.90
20856;DHT22;63058;49.424;8.420;2023-11-19T07:51:18;14.80;99.90
20856;DHT22;63058;49.424;8.420;2023-11-19T07:53:43;14.80;99.90
20856;DHT22;63058;49.424;8.420;2023-11-19T07:56:09;14.80;99.90
20856;DHT22;63058;49.424;8.420;2023-11-19T07:58:35;14.70;99.90
20856;DHT22;63058;49.424;8.420;2023-11-19T08:01:02;14.80;99.90
20856;DHT22;63058;49.424;8.420;2023-11-19T08:03:28;14.70;99.90
20856;DHT22;63058;49.424;8.420;2023-11-19T08:05:58;14.80;99.90
20856;DHT22;63058;49.424;8.420;2023-11-19T08:08:23;14.60;99.90
20856;DHT22;63058;49.424;8.420;2023-11-19T08:10:49;14.60;99.90
20856;DHT22;63058;49.424;8.420;2023-11-19T08:13:17;14.60;99.90
20856;DHT22;63058;49.424;8.420;2023-11-19T08:15:43;14.60;99.90
20856;DHT22;63058;49.424;8.420;2023-11-19T08:18:08;14.60;99.90
20856;DHT22;63058;49.424;8.420;2023-11-19T08:20:34;14.50;99.90
20856;DHT22;63058;49.424;8.420;2023-11-19T08:23:02;14.60;99.90
20856;DHT22;63058;49.424;8.420;2023-11-19T08:25:28;14.70;99.90
20856;DHT22;63058;49.424;8.420;2023-11-19T08:27:54;14.70;99.90
20856;DHT22;63058;49.424;8.420;2023-11-19T08:30:20;14.70;99.90
20856;DHT22;63058;49.424;8.420;2023-11-19T08:32:45;14.80;99.90
20856;DHT22;63058;49.424;8.420;2023-11-19T08:35:11;14.80;99.90
20856;DHT22;63058;49.424;8.420;2023-11-19T08:37:36;14.90;99.90
20856;DHT22;63058;49.424;8.420;2023-11-19T08:40:03;14.90;99.90
20856;DHT22;63058;49.424;8.420;2023-11-19T08:42:30;15.00;99.90
20856;DHT22;63058;49.424;8.420;2023-11-19T08:44:55;15.00;99.90
20856;DHT22;63058;49.424;8.420;2023-11-19T08:47:21;15.10;99.90
20856;DHT22;63058;49.424;8.420;2023-11-19T08:49:50;15.30;99.90
20856;DHT22;63058;49.424;8.420;2023-11-19T08:52:15;15.40;99.90
20856;DHT22;63058;49.424;8.420;2023-11-19T08:54:43;15.50;99.90
20856;DHT22;63058;49.424;8.420;2023-11-19T08:57:09;15.60;99.90
20856;DHT22;63058;49.424;8.420;2023-11-19T08:59:35;15.80;99.90
20856;DHT22;63058;49.424;8.420;2023-11-19T09:02:00;16.00;99.90
20856;DHT22;63058;49.424;8.420;2023-11-19T09:04:27;16.20;99.90
20856;DHT22;63058;49.424;8.420;2023-11-19T09:06:53;16.30;99.90
20856;DHT22;63058;49.424;8.420;2023-11-19T09:09:18;16.40;99.90
20856;DHT22;63058;49.424;8.420;2023-11-19T09:11:44;16.40;99.90
20856;DHT22;63058;49.424;8.420;2023-11-19T09:14:09;16.50;99.90
20856;DHT22;63058;49.424;8.420;2023-11-19T09:16:35;16.50;99.90
20856;DHT22;63058;49.424;8.420;2023-11-19T09:19:00;16.60;99.90
20856;DHT22;63058;49.424;8.420;2023-11-19T09:21:28;16.60;99.90
20856;DHT22;63058;49.424;8.420;2023-11-19T09:23:55;16.60;99.90
20856;DHT22;63058;49.424;8.420;2023-11-19T09:26:20;16.70;99.90
20856;DHT22;63058;49.424;8.420;2023-11-19T09:28:46;16.80;99.90
20856;DHT22;63058;49.424;8.420;2023-11-19T09:31:18;16.80;99.90
20856;DHT22;63058;49.424;8.420;2023-11-19T09:33:44;16.90;99.90
20856;DHT22;63058;49.424;8.420;2023-11-19T09:36:12;16.90;99.90
20856;DHT22;63058;49.424;8.420;2023-11-19T09:38:39;17.00;99.90
20856;DHT22;63058;49.424;8.420;2023-11-19T09:41:05;17.00;99.90
20856;DHT22;63058;49.424;8.420;2023-11-19T09:43:35;17.00;99.90
20856;DHT22;63058;49.424;8.420;2023-11-19T09:46:06;17.00;99.90
20856;DHT22;63058;49.424;8.420;2023-11-19T09:48:35;17.00;99.90
20856;DHT22;63058;49.424;8.420;2023-11-19T09:51:02;16.90;99.90
20856;DHT22;63058;49.424;8.420;2023-11-19T09:53:28;16.90;99.90
20856;DHT22;63058;49.424;8.420;2023-11-19T09:55:55;16.90;99.90
20856;DHT22;63058;49.424;8.420;2023-11-19T09:58:21;16.80;99.90
20856;DHT22;63058;49.424;8.420;2023-11-19T10:00:49;16.80;99.90
20856;DHT22;63058;49.424;8.420;2023-11-19T10:03:15;16.80;99.90
20856;DHT22;63058;49.424;8.420;2023-11-19T10:05:40;16.80;99.90
20856;DHT22;63058;49.424;8.420;2023-11-19T10:08:06;16.80;99.90
20856;DHT22;63058;49.424;8.420;2023-11-19T10:10:33;16.80;99.90
20856;DHT22;63058;49.424;8.420;2023-11-19T10:12:59;16.90;99.90
20856;DHT22;63058;49.424;8.420;2023-11-19T10:15:26;17.00;99.90
20856;DHT22;63058;49.424;8.420;2023-11-19T10:17:55;17.10;99.90
20856;DHT22;63058;49.424;8.420;2023-11-19T10:20:20;17.10;99.90
20856;DHT22;63058;49.424;8.420;2023-11-19T10:22:46;17.20;99.90
20856;DHT22;63058;49.424;8.420;2023-11-19T10:25:28;17.20;99.90
20856;DHT22;63058;49.424;8.420;2023-11-19T10:27:56;17.20;99.90
20856;DHT22;63058;49.424;8.420;2023-11-19T10:30:28;17.30;99.90
20856;DHT22;63058;49.424;8.420;2023-11-19T10:33:14;17.30;99.90
20856;DHT22;63058;49.424;8.420;2023-11-19T10:35:58;17.30;99.90
20856;DHT22;63058;49.424;8.420;2023-11-19T10:38:24;17.40;99.90
20856;DHT22;63058;49.424;8.420;2023-11-19T10:40:51;17.50;99.90
20856;DHT22;63058;49.424;8.420;2023-11-19T10:43:17;17.50;99.90
20856;DHT22;63058;49.424;8.420;2023-11-19T10:45:43;17.60;99.90
20856;DHT22;63058;49.424;8.420;2023-11-19T10:48:09;17.60;99.90
20856;DHT22;63058;49.424;8.420;2023-11-19T10:50:36;17.70;99.90
20856;DHT22;63058;49.424;8.420;2023-11-19T10:53:03;17.60;99.90
20856;DHT22;63058;49.424;8.420;2023-11-19T10:55:30;17.60;99.90
20856;DHT22;63058;49.424;8.420;2023-11-19T10:58:02;17.50;99.90
20856;DHT22;63058;49.424;8.420;2023-11-19T11:00:45;17.50;99.90
20856;DHT22;63058;49.424;8.420;2023-11-19T11:03:21;17.50;99.90
20856;DHT22;63058;49.424;8.420;2023-11-19T11:05:49;17.40;99.90
20856;DHT22;63058;49.424;8.420;2023-11-19T11:08:15;17.40;99.90
20856;DHT22;63058;49.424;8.420;2023-11-19T11:10:53;17.30;99.90
20856;DHT22;63058;49.424;8.420;2023-11-19T11:13:20;17.20;99.90
20856;DHT22;63058;49.424;8.420;2023-11-19T11:15:48;17.30;99.90
20856;DHT22;63058;49.424;8.420;2023-11-19T11:18:14;17.20;99.90
20856;DHT22;63058;49.424;8.420;2023-11-19T11:20:39;17.20;99.90
20856;DHT22;63058;49.424;8.420;2023-11-19T11:23:33;17.10;99.90
20856;DHT22;63058;49.424;8.420;2023-11-19T11:28:56;17.10;99.90
20856;DHT22;63058;49.424;8.420;2023-11-19T11:35:08;17.10;99.90
20856;DHT22;63058;49.424;8.420;2023-11-19T11:37:43;17.20;99.90
20856;DHT22;63058;49.424;8.420;2023-11-19T11:40:17;17.30;99.90
20856;DHT22;63058;49.424;8.420;2023-11-19T11:42:48;17.40;99.90
20856;DHT22;63058;49.424;8.420;2023-11-19T11:45:14;17.50;99.90
20856;DHT22;63058;49.424;8.420;2023-11-19T11:50:14;17.80;99.90
20856;DHT22;63058;49.424;8.420;2023-11-19T11:57:53;18.50;99.90
20856;DHT22;63058;49.424;8.420;2023-11-19T12:00:40;18.70;99.90
20856;DHT22;63058;49.424;8.420;2023-11-19T12:03:07;18.80;99.90
20856;DHT22;63058;49.424;8.420;2023-11-19T12:05:38;18.80;99.90
20856;DHT22;63058;49.424;8.420;2023-11-19T12:08:04;18.90;99.90
20856;DHT22;63058;49.424;8.420;2023-11-19T12:10:37;18.80;99.90
20856;DHT22;63058;49.424;8.420;2023-11-19T12:13:06;18.80;99.90
20856;DHT22;63058;49.424;8.420;2023-11-19T12:18:20;18.70;99.90
20856;DHT22;63058;49.424;8.420;2023-11-19T12:20:46;18.70;99.90
20856;DHT22;63058;49.424;8.420;2023-11-19T12:23:12;18.60;99.90
20856;DHT22;63058;49.424;8.420;2023-11-19T12:25:37;18.50;99.90
20856;DHT22;63058;49.424;8.420;2023-11-19T12:28:03;18.50;99.90
20856;DHT22;63058;49.424;8.420;2023-11-19T12:30:29;18.50;99.90
20856;DHT22;63058;49.424;8.420;2023-11-19T12:32:55;18.60;99.90
20856;DHT22;63058;49.424;8.420;2023-11-19T12:35:21;18.80;99.90
20856;DHT22;63058;49.424;8.420;2023-11-19T12:37:51;19.10;99.90
20856;DHT22;63058;49.424;8.420;2023-11-19T12:40:24;19.50;99.90
20856;DHT22;63058;49.424;8.420;2023-11-19T12:42:51;19.70;99.90
20856;DHT22;63058;49.424;8.420;2023-11-19T12:45:17;19.90;99.90
20856;DHT22;63058;49.424;8.420;2023-11-19T12:47:44;20.00;99.90
20856;DHT22;63058;49.424;8.420;2023-11-19T12:50:12;20.20;99.90
20856;DHT22;63058;49.424;8.420;2023-11-19T12:52:38;20.30;99.90
20856;DHT22;63058;49.424;8.420;2023-11-19T12:57:50;20.40;98.90
20856;DHT22;63058;49.424;8.420;2023-11-19T13:00:20;20.70;99.90
20856;DHT22;63058;49.424;8.420;2023-11-19T13:02:50;21.00;99.90
20856;DHT22;63058;49.424;8.420;2023-11-19T13:05:33;21.40;99.90
20856;DHT22;63058;49.424;8.420;2023-11-19T13:08:03;21.60;99.90
20856;DHT22;63058;49.424;8.420;2023-11-19T13:10:31;21.70;99.90
20856;DHT22;63058;49.424;8.420;2023-11-19T13:13:01;21.70;99.90
20856;DHT22;63058;49.424;8.420;2023-11-19T13:15:26;21.60;99.90
20856;DHT22;63058;49.424;8.420;2023-11-19T13:17:52;21.40;99.90
20856;DHT22;63058;49.424;8.420;2023-11-19T13:20:18;21.10;99.90
20856;DHT22;63058;49.424;8.420;2023-11-19T13:22:57;21.00;99.90
20856;DHT22;63058;49.424;8.420;2023-11-19T13:25:23;21.00;99.90
20856;DHT22;63058;49.424;8.420;2023-11-19T13:27:48;21.10;99.90
20856;DHT22;63058;49.424;8.420;2023-11-19T13:30:14;21.10;99.90
20856;DHT22;63058;49.424;8.420;2023-11-19T13:32:40;21.20;99.90
20856;DHT22;63058;49.424;8.420;2023-11-19T13:35:05;21.10;99.90
20856;DHT22;63058;49.424;8.420;2023-11-19T13:37:34;21.10;99.90
20856;DHT22;63058;49.424;8.420;2023-11-19T13:39:59;21.00;99.90
20856;DHT22;63058;49.424;8.420;2023-11-19T13:42:25;21.00;99.90
20856;DHT22;63058;49.424;8.420;2023-11-19T13:44:50;20.90;99.90
20856;DHT22;63058;49.424;8.420;2023-11-19T13:47:16;20.90;99.90
20856;DHT22;63058;49.424;8.420;2023-11-19T13:49:41;20.80;99.90
20856;DHT22;63058;49.424;8.420;2023-11-19T13:52:07;20.70;99.90
20856;DHT22;63058;49.424;8.420;2023-11-19T13:54:33;20.50;99.90
20856;DHT22;63058;49.424;8.420;2023-11-19T13:56:58;20.50;99.90
20856;DHT22;63058;49.424;8.420;2023-11-19T13:59:24;20.40;99.90
20856;DHT22;63058;49.424;8.420;2023-11-19T14:01:49;20.30;99.90
20856;DHT22;63058;49.424;8.420;2023-11-19T14:04:15;20.10;99.90
20856;DHT22;63058;49.424;8.420;2023-11-19T14:06:41;20.10;99.90
20856;DHT22;63058;49.424;8.420;2023-11-19T14:09:07;20.00;99.90
20856;DHT22;63058;49.424;8.420;2023-11-19T14:11:32;19.90;99.90
20856;DHT22;63058;49.424;8.420;2023-11-19T14:13:58;19.90;99.90
20856;DHT22;63058;49.424;8.420;2023-11-19T14:16:27;19.80;99.90
20856;DHT22;63058;49.424;8.420;2023-11-19T14:18:52;19.80;99.90
20856;DHT22;63058;49.424;8.420;2023-11-19T14:21:18;19.80;99.90
20856;DHT22;63058;49.424;8.420;2023-11-19T14:23:44;19.70;99.90
20856;DHT22;63058;49.424;8.420;2023-11-19T14:26:09;19.70;99.90
20856;DHT22;63058;49.424;8.420;2023-11-19T14:28:35;19.60;99.90
20856;DHT22;63058;49.424;8.420;2023-11-19T14:31:00;19.60;99.90
20856;DHT22;63058;49.424;8.420;2023-11-19T14:33:26;19.50;99.90
20856;DHT22;63058;49.424;8.420;2023-11-19T14:35:52;19.40;99.90
20856;DHT22;63058;49.424;8.420;2023-11-19T14:38:17;19.40;99.90
20856;DHT22;63058;49.424;8.420;2023-11-19T14:40:43;19.30;99.90
20856;DHT22;63058;49.424;8.420;2023-11-19T14:43:09;19.20;99.90
20856;DHT22;63058;49.424;8.420;2023-11-19T14:45:37;19.10;99.90
20856;DHT22;63058;49.424;8.420;2023-11-19T14:48:03;19.10;99.90
20856;DHT22;63058;49.424;8.420;2023-11-19T14:50:29;19.00;99.90
20856;DHT22;63058;49.424;8.420;2023-11-19T14:52:54;18.90;99.90
20856;DHT22;63058;49.424;8.420;2023-11-19T14:55:20;18.90;99.90
20856;DHT22;63058;49.424;8.420;2023-11-19T14:57:45;18.90;99.90
20856;DHT22;63058;49.424;8.420;2023-11-19T15:00:11;18.80;99.90
20856;DHT22;63058;49.424;8.420;2023-11-19T15:02:43;18.80;99.90
20856;DHT22;63058;49.424;8.420;2023-11-19T15:05:09;18.70;99.90
20856;DHT22;63058;49.424;8.420;2023-11-19T15:07:38;18.70;99.90
20856;DHT22;63058;49.424;8.420;2023-11-19T15:10:06;18.70;99.90
20856;DHT22;63058;49.424;8.420;2023-11-19T15:12:39;18.60;99.90
20856;DHT22;63058;49.424;8.420;2023-11-19T15:15:08;18.50;99.90
20856;DHT22;63058;49.424;8.420;2023-11-19T15:17:35;18.40;99.90
20856;DHT22;63058;49.424;8.420;2023-11-19T15:20:02;18.40;99.90
20856;DHT22;63058;49.424;8.420;2023-11-19T15:22:28;18.30;99.90
20856;DHT22;63058;49.424;8.420;2023-11-19T15:24:53;18.30;99.90
20856;DHT22;63058;49.424;8.420;2023-11-19T15:27:19;18.20;99.90
20856;DHT22;63058;49.424;8.420;2023-11-19T15:29:44;18.20;99.90
20856;DHT22;63058;49.424;8.420;2023-11-19T15:32:10;18.10;99.90
20856;DHT22;63058;49.424;8.420;2023-11-19T15:34:36;18.10;99.90
20856;DHT22;63058;49.424;8.420;2023-11-19T15:37:03;18.00;99.90
20856;DHT22;63058;49.424;8.420;2023-11-19T15:39:29;18.00;99.90
20856;DHT22;63058;49.424;8.420;2023-11-19T15:41:55;17.90;99.90
20856;DHT22;63058;49.424;8.420;2023-11-19T15:44:22;17.90;99.90
20856;DHT22;63058;49.424;8.420;2023-11-19T15:46:47;17.80;99.90
20856;DHT22;63058;49.424;8.420;2023-11-19T15:49:13;17.80;99.90